Time;durP1;ratioP1;P1;durP2;ratioP2;P2;SDS_P1;SDS_P2;PMS_P1;PMS_P2;Temp;Humidity;BMP_temperature;BMP_pressure;BME280_temperature;BME280_humidity;BME280_pressure;Samples;Min_cycle;Max_cycle;Signal;HPM_P1;HPM_P2
2023/01/19 00:00:33;;;;;;;11.35;9.57;;;3.10;92.30;;;;;;4995574;28;20069;-46
2023/01/19 00:03:03;;;;;;;9.73;8.57;;;3.10;92.20;;;;;;5030008;28;20642;-48
2023/01/19 00:05:29;;;;;;;13.18;8.52;;;3.10;92.20;;;;;;5012949;28;20041;-46
2023/01/19 00:08:13;;;;;;;12.43;8.82;;;3.20;92.10;;;;;;5011973;28;20104;-45
2023/01/19 00:10:50;;;;;;;15.25;9.25;;;3.10;92.10;;;;;;5012860;28;20030;-47
2023/01/19 00:13:17;;;;;;;12.15;8.60;;;3.10;91.90;;;;;;5012108;28;20041;-48
2023/01/19 00:15:44;;;;;;;9.82;7.97;;;3.10;91.90;;;;;;5028659;28;20128;-50
2023/01/19 00:18:11;;;;;;;9.07;7.70;;;3.10;91.90;;;;;;5030704;28;20022;-51
2023/01/19 00:20:39;;;;;;;10.10;8.75;;;3.10;91.80;;;;;;5019037;28;20033;-46
2023/01/19 00:23:06;;;;;;;13.02;8.65;;;3.10;91.70;;;;;;5013281;28;20392;-47
2023/01/19 00:25:32;;;;;;;9.70;8.45;;;3.00;91.70;;;;;;5015440;28;20029;-47
2023/01/19 00:28:02;;;;;;;10.60;8.35;;;3.00;91.80;;;;;;5031614;28;20092;-46
2023/01/19 00:30:29;;;;;;;10.65;8.35;;;3.10;91.80;;;;;;5036057;28;20355;-47
2023/01/19 00:32:56;;;;;;;10.98;8.65;;;3.10;91.80;;;;;;5033997;28;20049;-44
2023/01/19 00:35:23;;;;;;;12.75;9.43;;;3.10;91.80;;;;;;5021581;28;20077;-45
2023/01/19 00:37:50;;;;;;;14.13;11.88;;;3.00;91.80;;;;;;5015921;28;20022;-50
2023/01/19 00:40:17;;;;;;;13.55;10.13;;;3.00;91.70;;;;;;5015909;28;20030;-46
2023/01/19 00:42:47;;;;;;;14.52;11.10;;;3.00;91.70;;;;;;5007800;28;20100;-47
2023/01/19 00:45:31;;;;;;;;;;;3.00;91.70;;;;;;5016219;28;20029;-47
2023/01/19 00:47:58;;;;;;;13.27;10.88;;;3.00;91.70;;;;;;5033402;28;19913;-45
2023/01/19 00:50:30;;;;;;;11.68;9.63;;;3.00;91.80;;;;;;5034808;28;20029;-47
2023/01/19 00:52:59;;;;;;;14.27;11.50;;;2.90;91.70;;;;;;5028327;28;20022;-48
2023/01/19 00:55:27;;;;;;;14.80;10.88;;;2.90;91.80;;;;;;5028160;28;20087;-44
2023/01/19 00:57:56;;;;;;;13.38;10.55;;;2.90;92.00;;;;;;5035381;28;20478;-45
2023/01/19 01:00:23;;;;;;;13.80;11.93;;;2.90;92.00;;;;;;5030064;28;20072;-44
2023/01/19 01:02:52;;;;;;;13.40;10.82;;;2.90;91.90;;;;;;5033503;28;20052;-46
2023/01/19 01:05:21;;;;;;;13.07;10.93;;;2.90;91.90;;;;;;5017595;28;20416;-49
2023/01/19 01:07:48;;;;;;;11.70;9.77;;;2.90;91.90;;;;;;5015259;28;20030;-49
2023/01/19 01:10:23;;;;;;;15.10;10.00;;;2.90;91.90;;;;;;5015763;28;20084;-47
2023/01/19 01:12:51;;;;;;;16.35;10.10;;;2.90;92.00;;;;;;5014491;28;20034;-47
2023/01/19 01:15:18;;;;;;;13.95;10.20;;;3.00;92.00;;;;;;5014342;28;20064;-47
2023/01/19 01:17:47;;;;;;;16.30;9.70;;;3.00;92.00;;;;;;5030016;28;20034;-48
2023/01/19 01:20:33;;;;;;;14.20;10.60;;;3.00;91.90;;;;;;5029824;28;20042;-46
2023/01/19 01:23:03;;;;;;;13.02;9.20;;;3.00;92.00;;;;;;5015206;28;20083;-43
2023/01/19 01:25:30;;;;;;;13.65;9.75;;;3.00;91.90;;;;;;5015377;28;20029;-48
2023/01/19 01:27:56;;;;;;;14.88;9.10;;;2.90;91.90;;;;;;5015173;28;20080;-47
2023/01/19 01:30:23;;;;;;;11.38;9.40;;;3.00;91.90;;;;;;5014774;28;20022;-45
2023/01/19 01:32:51;;;;;;;14.52;10.85;;;3.00;91.90;;;;;;5023664;28;20037;-46
2023/01/19 01:35:18;;;;;;;12.73;10.52;;;2.90;91.70;;;;;;5033089;28;20029;-44
2023/01/19 01:37:47;;;;;;;12.05;10.07;;;2.90;91.80;;;;;;5034880;28;20112;-43
2023/01/19 01:40:16;;;;;;;12.98;10.23;;;2.90;91.80;;;;;;5034751;28;20026;-44
2023/01/19 01:42:44;;;;;;;14.20;9.63;;;2.90;91.80;;;;;;5025868;28;20041;-46
2023/01/19 01:45:21;;;;;;;13.38;10.65;;;2.90;91.90;;;;;;5014749;28;20034;-47
2023/01/19 01:47:50;;;;;;;12.18;9.18;;;2.90;91.80;;;;;;5026372;28;20036;-44
2023/01/19 01:50:25;;;;;;;14.10;9.27;;;2.90;91.70;;;;;;5034051;28;20033;-46
2023/01/19 01:53:00;;;;;;;12.02;8.30;;;2.90;91.70;;;;;;5016278;28;20296;-44
2023/01/19 01:55:31;;;;;;;11.07;8.57;;;2.90;91.70;;;;;;5014686;28;20494;-46
2023/01/19 01:58:02;;;;;;;11.48;8.63;;;2.90;91.70;;;;;;5014721;28;20164;-50
2023/01/19 02:02:49;;;;;;;10.68;9.30;;;2.90;91.80;;;;;;5025707;28;20064;-45
2023/01/19 02:03:15;;;;;;;10.45;8.70;;;2.90;91.80;;;;;;5032960;28;20446;-44
2023/01/19 02:05:42;;;;;;;9.95;8.00;;;2.90;91.80;;;;;;5034499;28;20135;-48
2023/01/19 02:13:54;;;;;;;10.32;9.05;;;2.90;92.00;;;;;;5014255;28;20053;-44
2023/01/19 02:16:20;;;;;;;10.20;8.98;;;2.90;91.90;;;;;;5014399;28;20030;-46
2023/01/19 02:18:48;;;;;;;11.70;9.32;;;2.90;92.00;;;;;;5029104;28;20029;-44
2023/01/19 02:21:34;;;;;;;11.00;9.23;;;2.90;92.00;;;;;;5028674;28;20139;-45
2023/01/19 02:24:01;;;;;;;11.45;8.25;;;2.90;92.00;;;;;;5014105;28;20444;-44
2023/01/19 02:26:37;;;;;;;13.18;10.18;;;2.90;92.10;;;;;;5014093;28;20597;-44
2023/01/19 02:29:13;;;;;;;10.40;9.25;;;2.90;92.10;;;;;;4997060;28;20038;-44
2023/01/19 02:31:41;;;;;;;11.45;8.40;;;2.90;92.20;;;;;;5021833;28;20041;-45
2023/01/19 02:34:10;;;;;;;10.32;8.80;;;3.00;92.30;;;;;;5031755;28;20032;-45
2023/01/19 02:36:51;;;;;;;11.10;9.07;;;2.90;92.40;;;;;;5032244;28;20120;-45
2023/01/19 02:39:31;;;;;;;11.30;8.65;;;2.90;92.40;;;;;;5025234;28;20104;-44
2023/01/19 02:42:00;;;;;;;;;;;3.00;92.30;;;;;;5026677;28;20399;-47
2023/01/19 02:44:29;;;;;;;13.30;8.23;;;2.90;92.30;;;;;;5013933;28;19906;-44
2023/01/19 02:46:56;;;;;;;10.82;7.88;;;3.00;92.30;;;;;;5024999;28;20029;-47
2023/01/19 02:49:28;;;;;;;9.68;8.20;;;2.90;92.30;;;;;;5033437;28;20428;-53
2023/01/19 02:51:57;;;;;;;8.70;6.78;;;2.90;92.30;;;;;;5027934;28;20030;-61
2023/01/19 02:54:53;;;;;;;9.43;7.30;;;2.90;92.40;;;;;;5012969;28;20038;-62
2023/01/19 02:57:56;;;;;;;10.95;7.65;;;2.80;92.50;;;;;;5013851;28;20436;-63
2023/01/19 03:00:52;;;;;;;11.00;8.55;;;2.80;92.70;;;;;;5013606;28;20045;-60
2023/01/19 03:03:31;;;;;;;12.85;9.52;;;2.80;93.00;;;;;;5011974;28;20076;-58
2023/01/19 03:06:16;;;;;;;10.95;8.05;;;2.80;93.10;;;;;;5015120;28;20030;-57
2023/01/19 03:09:00;;;;;;;8.38;6.55;;;2.80;93.30;;;;;;5013294;28;20080;-59
2023/01/19 03:11:34;;;;;;;9.93;7.63;;;2.80;93.40;;;;;;5028552;28;20017;-57
2023/01/19 03:14:25;;;;;;;10.27;7.78;;;2.90;93.50;;;;;;5011859;28;20578;-53
2023/01/19 03:16:57;;;;;;;10.80;8.00;;;2.90;93.50;;;;;;5023626;28;20068;-57
2023/01/19 03:19:43;;;;;;;10.52;7.35;;;2.80;93.60;;;;;;5030709;28;20083;-54
2023/01/19 03:22:22;;;;;;;10.90;7.68;;;2.90;93.70;;;;;;5024255;28;20049;-56
2023/01/19 03:24:52;;;;;;;10.93;7.45;;;2.90;93.70;;;;;;5012311;28;20121;-52
2023/01/19 03:27:30;;;;;;;8.73;7.07;;;2.90;93.70;;;;;;5010637;28;20038;-51
2023/01/19 03:30:08;;;;;;;10.70;7.68;;;2.90;93.60;;;;;;5012569;28;20029;-52
2023/01/19 03:32:46;;;;;;;11.85;8.27;;;2.90;93.60;;;;;;5026555;28;20107;-54
2023/01/19 03:35:17;;;;;;;10.35;7.78;;;2.90;93.70;;;;;;5013258;28;20117;-53
2023/01/19 03:37:47;;;;;;;8.80;7.68;;;2.80;93.60;;;;;;5013116;28;20026;-53
2023/01/19 03:40:13;;;;;;;8.88;7.53;;;2.80;93.60;;;;;;5025608;28;20030;-51
2023/01/19 03:42:43;;;;;;;10.43;7.45;;;2.80;93.60;;;;;;5028340;28;20040;-51
2023/01/19 03:45:10;;;;;;;;;;;2.80;93.70;;;;;;5021896;28;20034;-49
2023/01/19 03:47:38;;;;;;;9.30;6.82;;;2.80;93.70;;;;;;5032529;28;20331;-48
2023/01/19 03:50:10;;;;;;;8.75;7.40;;;2.70;93.70;;;;;;5012370;28;20112;-54
2023/01/19 03:52:36;;;;;;;9.85;7.47;;;2.70;93.70;;;;;;5027484;28;20026;-47
2023/01/19 03:55:04;;;;;;;9.05;7.32;;;2.70;93.70;;;;;;5013200;28;20419;-52
2023/01/19 03:57:35;;;;;;;8.45;6.38;;;2.70;93.60;;;;;;5014303;28;20038;-47
2023/01/19 04:00:03;;;;;;;9.75;7.03;;;2.70;93.60;;;;;;5017714;28;20058;-48
2023/01/19 04:02:28;;;;;;;8.35;7.10;;;2.70;93.60;;;;;;5035074;28;20034;-49
2023/01/19 04:04:58;;;;;;;11.57;7.85;;;2.70;93.60;;;;;;5030952;28;20045;-51
2023/01/19 04:07:23;;;;;;;8.68;7.15;;;2.70;93.60;;;;;;5016814;28;20033;-49
2023/01/19 04:09:55;;;;;;;9.68;6.85;;;2.70;93.60;;;;;;5018568;28;20026;-47
2023/01/19 04:12:22;;;;;;;7.78;6.45;;;2.60;93.60;;;;;;5016937;28;20099;-49
2023/01/19 04:14:49;;;;;;;9.20;6.88;;;2.60;93.60;;;;;;5025660;28;20057;-46
2023/01/19 04:17:16;;;;;;;11.35;7.15;;;2.60;93.50;;;;;;5033475;28;20045;-52
2023/01/19 04:19:44;;;;;;;9.63;8.02;;;2.60;93.60;;;;;;5022360;28;20060;-50
2023/01/19 04:22:11;;;;;;;10.18;7.80;;;2.60;93.60;;;;;;5015409;28;20388;-48
2023/01/19 04:24:38;;;;;;;13.85;8.63;;;2.60;93.60;;;;;;5016622;28;20029;-51
2023/01/19 04:27:04;;;;;;;12.77;9.35;;;2.60;93.60;;;;;;5016235;28;20423;-51
2023/01/19 04:29:30;;;;;;;13.40;9.70;;;2.60;93.60;;;;;;5016193;28;20049;-50
2023/01/19 04:31:58;;;;;;;11.80;8.73;;;2.60;93.60;;;;;;5031345;28;20513;-49
2023/01/19 04:34:25;;;;;;;14.40;10.45;;;2.60;93.60;;;;;;5036029;28;20056;-47
2023/01/19 04:36:51;;;;;;;11.20;9.40;;;2.70;93.70;;;;;;5033057;28;20021;-50
2023/01/19 04:39:16;;;;;;;12.45;9.48;;;2.70;93.70;;;;;;5015841;28;20046;-48
2023/01/19 04:41:43;;;;;;;13.60;9.70;;;2.60;93.70;;;;;;5015492;28;20033;-47
2023/01/19 04:44:10;;;;;;;13.02;9.50;;;2.70;93.70;;;;;;5016037;28;20018;-45
2023/01/19 04:46:39;;;;;;;11.82;9.55;;;2.70;93.70;;;;;;5026671;28;20032;-50
2023/01/19 04:49:07;;;;;;;15.65;10.43;;;2.70;93.70;;;;;;5016103;28;20030;-46
2023/01/19 04:51:35;;;;;;;13.25;10.15;;;2.70;93.70;;;;;;5015883;28;20034;-48
2023/01/19 04:54:02;;;;;;;14.88;11.15;;;2.70;93.70;;;;;;5015231;28;20344;-51
2023/01/19 04:56:28;;;;;;;15.55;10.45;;;2.70;93.70;;;;;;5015092;28;20109;-50
2023/01/19 04:58:55;;;;;;;14.95;10.38;;;2.70;93.70;;;;;;5016289;28;20570;-49
2023/01/19 05:01:21;;;;;;;11.77;8.82;;;2.70;93.80;;;;;;5035778;28;20446;-54
2023/01/19 05:03:50;;;;;;;16.83;10.98;;;2.70;93.80;;;;;;5019805;28;20593;-54
2023/01/19 05:06:16;;;;;;;13.77;11.52;;;2.70;93.80;;;;;;5033428;28;20041;-48
2023/01/19 05:08:43;;;;;;;13.70;10.40;;;2.60;93.80;;;;;;5034067;28;20451;-50
2023/01/19 05:11:10;;;;;;;13.95;10.05;;;2.70;93.90;;;;;;5018949;28;20033;-51
2023/01/19 05:13:37;;;;;;;12.93;10.98;;;2.70;93.80;;;;;;5015443;28;20540;-49
2023/01/19 05:16:05;;;;;;;13.18;11.05;;;2.70;93.90;;;;;;5030335;28;20037;-48
2023/01/19 05:18:35;;;;;;;14.63;11.27;;;2.70;93.90;;;;;;5034824;28;20033;-50
2023/01/19 05:21:05;;;;;;;;;;;2.70;93.80;;;;;;5033722;28;20531;-49
2023/01/19 05:23:34;;;;;;;14.05;11.30;;;2.70;93.90;;;;;;5034844;28;19909;-50
2023/01/19 05:26:02;;;;;;;13.07;10.45;;;2.70;93.80;;;;;;5026724;28;20018;-48
2023/01/19 05:28:30;;;;;;;12.52;10.60;;;2.70;93.80;;;;;;5014976;28;20111;-51
2023/01/19 05:30:57;;;;;;;13.85;10.40;;;2.60;93.80;;;;;;5027776;28;20025;-52
2023/01/19 05:33:24;;;;;;;14.77;12.48;;;2.70;93.90;;;;;;5027769;28;20407;-53
2023/01/19 05:35:52;;;;;;;14.98;11.50;;;2.60;93.90;;;;;;5015263;28;20091;-53
2023/01/19 05:38:20;;;;;;;15.30;12.00;;;2.60;93.90;;;;;;5013888;28;20026;-61
2023/01/19 05:40:47;;;;;;;15.10;11.90;;;2.60;93.90;;;;;;5014946;28;20029;-58
2023/01/19 05:43:14;;;;;;;14.43;12.25;;;2.70;94.00;;;;;;5014707;28;20065;-57
2023/01/19 05:45:42;;;;;;;22.27;13.43;;;2.60;93.90;;;;;;5025615;28;20030;-57
2023/01/19 05:48:09;;;;;;;16.90;12.35;;;2.60;93.90;;;;;;5019735;28;20081;-58
2023/01/19 05:50:34;;;;;;;16.35;11.75;;;2.60;94.00;;;;;;5014470;28;20037;-59
2023/01/19 05:53:01;;;;;;;14.75;12.75;;;2.60;94.00;;;;;;5014574;28;20034;-56
2023/01/19 05:55:28;;;;;;;16.50;12.77;;;2.70;94.00;;;;;;5013922;28;20026;-58
2023/01/19 05:57:55;;;;;;;14.95;12.07;;;2.70;94.00;;;;;;5014758;28;20022;-59
2023/01/19 06:00:26;;;;;;;15.25;11.68;;;2.70;94.10;;;;;;5024702;28;20358;-61
2023/01/19 06:02:52;;;;;;;14.38;12.05;;;2.70;94.10;;;;;;5034260;28;20035;-61
2023/01/19 06:05:19;;;;;;;18.88;12.95;;;2.60;94.10;;;;;;5022483;28;20047;-63
2023/01/19 06:07:44;;;;;;;17.10;13.35;;;2.70;94.10;;;;;;5014368;28;20101;-62
2023/01/19 06:10:11;;;;;;;15.43;12.73;;;2.60;94.10;;;;;;5013163;28;20152;-63
2023/01/19 06:12:42;;;;;;;16.80;12.85;;;2.60;94.10;;;;;;5014333;28;20026;-63
2023/01/19 06:15:09;;;;;;;17.13;12.45;;;2.60;94.10;;;;;;5022649;28;20076;-63
2023/01/19 06:17:35;;;;;;;18.13;13.18;;;2.60;94.10;;;;;;5031904;28;20534;-63
2023/01/19 06:20:04;;;;;;;15.32;11.55;;;2.60;94.10;;;;;;5013877;28;20033;-63
2023/01/19 06:22:31;;;;;;;14.10;11.38;;;2.50;94.10;;;;;;5013575;28;20029;-63
2023/01/19 06:24:58;;;;;;;15.23;11.32;;;2.50;94.10;;;;;;5017289;28;20038;-61
2023/01/19 06:27:25;;;;;;;15.38;12.05;;;2.50;94.10;;;;;;5018742;28;20037;-62
2023/01/19 06:29:52;;;;;;;17.35;13.18;;;2.50;94.10;;;;;;5022701;28;20077;-63
2023/01/19 06:32:19;;;;;;;19.90;13.25;;;2.50;94.10;;;;;;5032821;28;20029;-62
2023/01/19 06:34:48;;;;;;;15.55;12.65;;;2.50;94.10;;;;;;5032314;28;20052;-61
2023/01/19 06:37:18;;;;;;;15.07;12.35;;;2.50;94.20;;;;;;5017491;28;20080;-61
2023/01/19 06:39:45;;;;;;;15.60;12.52;;;2.50;94.20;;;;;;5013986;28;20033;-61
2023/01/19 06:42:11;;;;;;;15.57;12.00;;;2.50;94.20;;;;;;5013819;28;20039;-63
2023/01/19 06:44:42;;;;;;;17.52;12.75;;;2.50;94.20;;;;;;5018397;28;20032;-62
2023/01/19 06:47:09;;;;;;;17.60;14.02;;;2.50;94.30;;;;;;5013676;28;20069;-59
2023/01/19 06:49:35;;;;;;;17.08;13.52;;;2.50;94.30;;;;;;5013236;28;20033;-55
2023/01/19 06:52:02;;;;;;;17.02;14.30;;;2.50;94.40;;;;;;5012878;28;20030;-54
2023/01/19 06:54:29;;;;;;;18.55;13.45;;;2.60;94.40;;;;;;5028103;28;20039;-56
2023/01/19 06:56:56;;;;;;;16.35;12.95;;;2.60;94.40;;;;;;5027583;28;20343;-54
2023/01/19 06:59:26;;;;;;;15.52;12.90;;;2.60;94.40;;;;;;5031243;28;20048;-54
2023/01/19 07:01:54;;;;;;;16.75;12.85;;;2.60;94.40;;;;;;5030186;28;20028;-56
2023/01/19 07:04:24;;;;;;;17.90;13.20;;;2.60;94.50;;;;;;5028979;28;20049;-55
2023/01/19 07:06:50;;;;;;;17.33;12.20;;;2.60;94.40;;;;;;5025391;28;20030;-56
2023/01/19 07:09:16;;;;;;;17.45;12.73;;;2.60;94.40;;;;;;5013496;28;20060;-60
2023/01/19 07:11:42;;;;;;;16.17;12.82;;;2.60;94.50;;;;;;5020159;28;20033;-60
2023/01/19 07:14:09;;;;;;;19.10;12.13;;;2.60;94.40;;;;;;5027683;28;20362;-62
2023/01/19 07:16:38;;;;;;;15.10;11.60;;;2.60;94.50;;;;;;5032098;28;20104;-59
2023/01/19 07:19:09;;;;;;;16.50;11.77;;;2.60;94.50;;;;;;5001530;28;20034;-57
2023/01/19 07:21:38;;;;;;;18.60;12.68;;;2.60;94.50;;;;;;5012916;28;20030;-54
2023/01/19 07:24:05;;;;;;;16.55;12.40;;;2.60;94.50;;;;;;5013226;28;20030;-57
2023/01/19 07:26:32;;;;;;;16.48;11.75;;;2.70;94.50;;;;;;5022460;28;20124;-55
2023/01/19 07:28:58;;;;;;;15.98;12.63;;;2.70;94.60;;;;;;5030501;28;20030;-52
2023/01/19 07:31:30;;;;;;;17.52;12.35;;;2.70;94.50;;;;;;5025924;28;20026;-57
2023/01/19 07:33:57;;;;;;;18.77;13.05;;;2.70;94.60;;;;;;5016060;28;20038;-51
2023/01/19 07:36:24;;;;;;;16.60;12.70;;;2.60;94.50;;;;;;5017516;28;20030;-60
2023/01/19 07:38:51;;;;;;;18.02;11.80;;;2.70;94.60;;;;;;5025275;28;20026;-62
2023/01/19 07:41:18;;;;;;;15.18;11.40;;;2.70;94.50;;;;;;5036166;28;20104;-62
2023/01/19 07:43:45;;;;;;;17.50;13.05;;;2.70;94.60;;;;;;5034262;28;20328;-61
2023/01/19 07:46:12;;;;;;;15.63;12.95;;;2.70;94.60;;;;;;5027870;28;20456;-59
2023/01/19 07:48:39;;;;;;;19.35;13.05;;;2.70;94.60;;;;;;5036804;28;20033;-58
2023/01/19 07:51:11;;;;;;;16.77;12.98;;;2.70;94.50;;;;;;5036130;28;20073;-55
2023/01/19 07:53:38;;;;;;;18.67;12.77;;;2.70;94.50;;;;;;5029694;28;20100;-57
2023/01/19 07:56:06;;;;;;;14.60;10.73;;;2.70;94.50;;;;;;5016102;28;20026;-52
2023/01/19 07:58:33;;;;;;;14.75;10.45;;;2.60;94.40;;;;;;5024039;28;20462;-56
2023/01/19 08:01:04;;;;;;;15.93;11.57;;;2.50;94.40;;;;;;5031179;28;20044;-54
2023/01/19 08:03:32;;;;;;;16.17;11.60;;;2.50;94.40;;;;;;5015295;28;20476;-55
2023/01/19 08:05:59;;;;;;;16.38;12.43;;;2.40;94.40;;;;;;5035134;28;20116;-52
2023/01/19 08:08:28;;;;;;;16.67;11.80;;;2.40;94.40;;;;;;5028773;28;20044;-52
2023/01/19 08:10:55;;;;;;;16.10;10.88;;;2.40;94.40;;;;;;5016337;28;20025;-53
2023/01/19 08:13:22;;;;;;;15.23;10.75;;;2.40;94.40;;;;;;5030480;28;20041;-50
2023/01/19 08:15:52;;;;;;;15.70;11.02;;;2.40;94.50;;;;;;5033563;28;20068;-51
2023/01/19 08:18:22;;;;;;;16.08;11.38;;;2.40;94.50;;;;;;5032320;28;20060;-62
2023/01/19 08:20:49;;;;;;;18.30;11.98;;;2.50;94.50;;;;;;5017088;28;20022;-61
2023/01/19 08:23:16;;;;;;;17.38;12.23;;;2.50;94.60;;;;;;5016119;28;20045;-61
2023/01/19 08:25:44;;;;;;;17.80;12.95;;;2.60;94.60;;;;;;5016188;28;20231;-62
2023/01/19 08:28:12;;;;;;;21.23;14.07;;;2.60;94.60;;;;;;5029896;28;20367;-60
2023/01/19 08:30:43;;;;;;;23.92;14.43;;;2.60;94.60;;;;;;5018255;28;20022;-59
2023/01/19 08:33:11;;;;;;;17.23;13.18;;;2.70;94.60;;;;;;5029892;28;20033;-58
2023/01/19 08:35:48;;;;;;;21.02;13.73;;;2.70;94.60;;;;;;5035784;28;20018;-56
2023/01/19 08:38:14;;;;;;;24.58;14.13;;;2.70;94.60;;;;;;5029008;28;20038;-57
2023/01/19 08:40:41;;;;;;;17.38;12.35;;;2.70;94.50;;;;;;5016064;28;20031;-57
2023/01/19 08:43:14;;;;;;;20.70;14.05;;;2.70;94.50;;;;;;5026208;28;20467;-55
2023/01/19 08:45:47;;;;;;;16.77;13.18;;;2.70;94.40;;;;;;5033200;28;20033;-56
2023/01/19 08:48:20;;;;;;;17.80;13.48;;;2.70;94.30;;;;;;5030883;28;20030;-56
2023/01/19 08:50:51;;;;;;;19.88;12.60;;;2.70;94.30;;;;;;5015810;28;20474;-55
2023/01/19 08:53:19;;;;;;;18.73;12.80;;;2.70;94.30;;;;;;5016010;28;20462;-54
2023/01/19 08:55:58;;;;;;;14.40;11.80;;;2.60;94.20;;;;;;5016069;28;20037;-56
2023/01/19 08:58:26;;;;;;;14.27;11.30;;;2.60;94.10;;;;;;5028294;28;20287;-53
2023/01/19 09:01:00;;;;;;;18.42;11.27;;;2.60;94.10;;;;;;5033046;28;20021;-55
2023/01/19 09:03:31;;;;;;;16.38;10.98;;;2.50;94.10;;;;;;5032330;28;20152;-50
2023/01/19 09:05:56;;;;;;;14.82;11.38;;;2.50;94.00;;;;;;5027553;28;20033;-55
2023/01/19 09:08:22;;;;;;;16.20;11.60;;;2.40;94.00;;;;;;5033119;28;20033;-49
2023/01/19 09:10:50;;;;;;;16.92;10.88;;;2.40;94.00;;;;;;5020545;28;20025;-52
2023/01/19 09:13:18;;;;;;;15.15;10.30;;;2.40;94.00;;;;;;5020161;28;20037;-50
2023/01/19 09:15:45;;;;;;;13.75;9.68;;;2.40;94.00;;;;;;5035221;28;20021;-51
2023/01/19 09:18:17;;;;;;;12.52;9.02;;;2.40;94.00;;;;;;5017175;28;20038;-51
2023/01/19 09:20:46;;;;;;;14.63;10.18;;;2.40;94.10;;;;;;5015048;28;20346;-48
2023/01/19 09:23:16;;;;;;;12.95;8.82;;;2.40;94.00;;;;;;5013813;28;20057;-50
2023/01/19 09:25:46;;;;;;;;;;;2.40;94.10;;;;;;5015499;28;20118;-52
2023/01/19 09:28:13;;;;;;;;;;;2.40;94.10;;;;;;5026147;28;19909;-54
2023/01/19 09:30:41;;;;;;;12.27;8.48;;;2.40;94.00;;;;;;5033586;28;20356;-52
2023/01/19 09:33:11;;;;;;;13.80;7.88;;;2.40;94.10;;;;;;5014848;28;20444;-52
2023/01/19 09:35:43;;;;;;;17.02;8.63;;;2.40;94.10;;;;;;5026345;28;20360;-50
2023/01/19 09:38:11;;;;;;;11.52;7.18;;;2.40;94.20;;;;;;5022081;28;20170;-48
2023/01/19 09:40:50;;;;;;;10.15;6.40;;;2.50;94.20;;;;;;5015278;28;20846;-52
2023/01/19 09:43:35;;;;;;;10.57;6.80;;;2.60;94.30;;;;;;5034487;28;20090;-56
2023/01/19 09:46:14;;;;;;;10.10;6.03;;;2.80;94.50;;;;;;5016114;28;20026;-57
2023/01/19 09:49:03;;;;;;;;;;;3.00;94.60;;;;;;5019437;28;20520;-51
2023/01/19 09:51:37;;;;;;;13.05;5.63;;;3.20;94.60;;;;;;5031630;28;19928;-56
2023/01/19 09:54:16;;;;;;;10.05;6.30;;;3.40;94.60;;;;;;5034612;28;20065;-51
2023/01/19 09:56:45;;;;;;;8.20;5.97;;;3.50;94.40;;;;;;5026509;28;20037;-55
2023/01/19 09:59:40;;;;;;;10.23;6.47;;;3.50;94.30;;;;;;5031637;28;20030;-51
2023/01/19 10:02:24;;;;;;;10.02;6.15;;;3.50;94.20;;;;;;5034375;28;20095;-53
2023/01/19 10:05:25;;;;;;;10.43;4.95;;;3.60;94.10;;;;;;5014121;28;20387;-52
2023/01/19 10:08:10;;;;;;;8.43;4.50;;;3.60;94.00;;;;;;5014606;28;20026;-48
2023/01/19 10:10:41;;;;;;;8.48;4.72;;;3.70;94.00;;;;;;5013963;28;20037;-49
2023/01/19 10:13:28;;;;;;;11.02;6.13;;;3.70;93.90;;;;;;5027915;28;20451;-47
2023/01/19 10:16:11;;;;;;;15.77;7.78;;;3.70;93.80;;;;;;5033874;28;20040;-52
2023/01/19 10:18:50;;;;;;;9.00;5.07;;;3.70;93.80;;;;;;5031499;28;20029;-49
2023/01/19 10:21:42;;;;;;;9.63;5.13;;;3.70;93.80;;;;;;5013891;28;20026;-52
2023/01/19 10:24:25;;;;;;;10.57;3.72;;;3.80;93.80;;;;;;5023398;28;20058;-56
2023/01/19 10:26:54;;;;;;;8.38;2.38;;;3.70;93.80;;;;;;5029775;28;20022;-60
2023/01/19 10:29:36;;;;;;;8.75;2.53;;;3.70;93.80;;;;;;5033512;28;20025;-57
2023/01/19 10:32:07;;;;;;;8.48;2.67;;;3.70;93.80;;;;;;5033931;28;20025;-56
2023/01/19 10:34:34;;;;;;;10.50;2.00;;;3.70;93.80;;;;;;5018683;28;20037;-56
2023/01/19 10:37:40;;;;;;;5.30;1.63;;;3.70;93.90;;;;;;5015083;28;20682;-52
2023/01/19 10:40:18;;;;;;;6.80;1.80;;;3.80;93.90;;;;;;5025934;28;20030;-54
2023/01/19 10:42:45;;;;;;;8.18;1.95;;;3.80;93.90;;;;;;5020288;28;20022;-49
2023/01/19 10:45:30;;;;;;;8.50;1.60;;;3.90;93.90;;;;;;5024892;28;20084;-52
2023/01/19 10:48:06;;;;;;;8.88;1.42;;;3.90;93.80;;;;;;5027200;28;20427;-51
2023/01/19 10:50:39;;;;;;;8.48;1.85;;;4.00;93.70;;;;;;5015217;28;20585;-51
2023/01/19 10:53:24;;;;;;;9.95;1.40;;;4.10;93.50;;;;;;5013827;28;20038;-48
2023/01/19 10:56:13;;;;;;;7.10;1.20;;;4.20;93.40;;;;;;5013702;28;20021;-47
2023/01/19 10:58:40;;;;;;;12.43;2.90;;;4.30;93.10;;;;;;5022719;28;20108;-49
2023/01/19 11:01:19;;;;;;;7.85;2.65;;;4.40;93.00;;;;;;5031225;28;20116;-51
2023/01/19 11:03:45;;;;;;;14.05;3.85;;;4.40;92.90;;;;;;5032936;28;20355;-46
2023/01/19 11:06:17;;;;;;;15.10;3.47;;;4.50;92.60;;;;;;5031590;28;20043;-49
2023/01/19 11:08:45;;;;;;;9.88;1.98;;;4.50;92.50;;;;;;5015500;28;20021;-46
2023/01/19 11:11:12;;;;;;;6.82;2.22;;;4.60;92.30;;;;;;5030635;28;20029;-47
2023/01/19 11:13:40;;;;;;;11.95;3.55;;;4.70;92.30;;;;;;5030593;28;20116;-46
2023/01/19 11:16:28;;;;;;;10.50;2.58;;;4.70;92.10;;;;;;5029317;28;20367;-47
2023/01/19 11:18:57;;;;;;;9.38;1.95;;;4.80;91.70;;;;;;5028781;28;20018;-47
2023/01/19 11:21:26;;;;;;;12.23;1.77;;;4.70;91.40;;;;;;5013650;28;20029;-46
2023/01/19 11:23:55;;;;;;;8.55;3.75;;;4.70;91.40;;;;;;5025091;28;20026;-45
2023/01/19 11:26:39;;;;;;;8.70;1.85;;;4.70;91.30;;;;;;5013419;28;20363;-46
2023/01/19 11:29:19;;;;;;;14.38;3.40;;;4.80;91.20;;;;;;5022610;28;20035;-49
2023/01/19 11:31:45;;;;;;;11.30;2.38;;;4.80;91.20;;;;;;5031335;28;20075;-47
2023/01/19 11:34:42;;;;;;;12.93;2.25;;;4.90;91.10;;;;;;5031873;28;20363;-45
2023/01/19 11:37:19;;;;;;;9.00;1.73;;;4.90;90.90;;;;;;5016820;28;20077;-46
2023/01/19 11:39:54;;;;;;;13.85;1.98;;;4.90;90.60;;;;;;5020688;28;20840;-51
2023/01/19 11:42:21;;;;;;;10.13;2.15;;;4.90;90.10;;;;;;5031810;28;20037;-48
2023/01/19 11:45:05;;;;;;;16.85;2.53;;;5.00;89.80;;;;;;5027724;28;20103;-48
2023/01/19 11:47:51;;;;;;;7.28;1.92;;;5.00;89.40;;;;;;5031039;28;20018;-47
2023/01/19 11:50:34;;;;;;;8.55;2.42;;;5.10;88.80;;;;;;5031014;28;20029;-45
2023/01/19 11:53:19;;;;;;;8.15;1.98;;;5.20;88.70;;;;;;5028537;28;20029;-49
2023/01/19 11:55:56;;;;;;;7.72;1.75;;;5.20;88.00;;;;;;5032275;28;20044;-46
2023/01/19 11:58:23;;;;;;;5.32;1.48;;;5.20;87.60;;;;;;5029574;28;20037;-46
2023/01/19 12:01:44;;;;;;;11.68;2.17;;;5.20;87.90;;;;;;5031663;28;20523;-45
2023/01/19 12:04:15;;;;;;;7.28;1.25;;;5.10;87.80;;;;;;5035889;28;20048;-48
2023/01/19 12:06:47;;;;;;;5.45;1.30;;;5.10;87.70;;;;;;5027064;28;20045;-47
2023/01/19 12:09:36;;;;;;;7.43;2.08;;;5.10;87.50;;;;;;5024717;28;20064;-47
2023/01/19 12:12:14;;;;;;;4.10;1.00;;;5.10;87.30;;;;;;5012609;28;20097;-47
2023/01/19 12:15:21;;;;;;;6.90;1.38;;;5.00;86.80;;;;;;5023621;28;20045;-47
2023/01/19 12:17:57;;;;;;;9.85;1.80;;;5.00;87.10;;;;;;5029633;28;20064;-49
2023/01/19 12:20:44;;;;;;;7.72;1.38;;;5.00;86.60;;;;;;5016565;28;20030;-48
2023/01/19 12:23:22;;;;;;;17.42;3.20;;;5.00;86.80;;;;;;5016101;28;20336;-47
2023/01/19 12:26:05;;;;;;;9.25;1.33;;;5.10;87.10;;;;;;5016321;28;20521;-49
2023/01/19 12:28:37;;;;;;;6.10;1.23;;;5.10;87.10;;;;;;5019668;28;20354;-47
2023/01/19 12:31:04;;;;;;;11.50;2.15;;;5.20;87.00;;;;;;5030301;28;20104;-46
2023/01/19 12:33:49;;;;;;;6.78;1.30;;;5.20;87.30;;;;;;4999091;28;20455;-46
2023/01/19 12:36:35;;;;;;;17.10;4.50;;;5.40;87.70;;;;;;5025424;28;20038;-45
2023/01/19 12:39:10;;;;;;;6.65;1.42;;;5.60;87.00;;;;;;5034112;28;20033;-48
2023/01/19 12:42:03;;;;;;;7.05;1.45;;;5.70;87.20;;;;;;5019134;28;20033;-46
2023/01/19 12:44:32;;;;;;;7.50;1.67;;;5.80;86.20;;;;;;5025983;28;20040;-47
2023/01/19 12:47:19;;;;;;;4.32;1.33;;;5.70;82.60;;;;;;5035880;28;20355;-48
2023/01/19 12:50:12;;;;;;;6.72;1.27;;;5.50;82.50;;;;;;5016189;28;20116;-49
2023/01/19 12:52:55;;;;;;;4.65;1.10;;;5.20;82.60;;;;;;5015767;28;20026;-48
2023/01/19 12:55:29;;;;;;;6.03;2.45;;;5.00;82.70;;;;;;5016755;28;20657;-48
2023/01/19 12:58:16;;;;;;;7.53;1.17;;;4.90;82.90;;;;;;5016330;28;20353;-47
2023/01/19 13:00:46;;;;;;;9.50;2.30;;;4.70;83.00;;;;;;5032189;28;20087;-46
2023/01/19 13:03:14;;;;;;;;;;;4.50;83.10;;;;;;5017809;28;20424;-46
2023/01/19 13:05:40;;;;;;;4.30;1.45;;;4.60;83.20;;;;;;5031196;28;19921;-46
2023/01/19 13:08:10;;;;;;;10.38;1.45;;;4.60;83.30;;;;;;5019669;28;20486;-47
2023/01/19 13:11:04;;;;;;;6.53;1.42;;;4.60;83.60;;;;;;5034471;28;20033;-48
2023/01/19 13:13:35;;;;;;;7.65;1.40;;;4.60;83.30;;;;;;5017562;28;20032;-47
2023/01/19 13:16:20;;;;;;;6.65;1.77;;;4.70;83.10;;;;;;5034955;28;20041;-47
2023/01/19 13:18:50;;;;;;;7.78;1.13;;;4.70;83.30;;;;;;5035128;28;20104;-49